Time;durP1;ratioP1;P1;durP2;ratioP2;P2;SDS_P1;SDS_P2;PMS_P1;PMS_P2;Temp;Humidity;BMP_temperature;BMP_pressure;BME280_temperature;BME280_humidity;BME280_pressure;Samples;Min_cycle;Max_cycle;Signal;HPM_P1;HPM_P2
2023/07/21 00:00:52;;;;;;;0.20;0.20;;;;;;;14.81;69.52;98658.66;4984305;28;20050;-72
2023/07/21 00:03:19;;;;;;;0.20;0.20;;;;;;;14.81;69.19;98655.91;4987403;28;20129;-72
2023/07/21 00:05:45;;;;;;;0.35;0.20;;;;;;;14.82;69.31;98652.00;4983510;28;20039;-72
2023/07/21 00:08:13;;;;;;;0.20;0.20;;;;;;;14.83;69.55;98648.13;4982185;28;20065;-72
2023/07/21 00:10:39;;;;;;;0.20;0.20;;;;;;;14.86;69.08;98655.69;4982441;28;20430;-72
2023/07/21 00:13:06;;;;;;;0.20;0.20;;;;;;;14.90;69.22;98653.88;4984675;28;20050;-72
2023/07/21 00:15:33;;;;;;;0.20;0.20;;;;;;;14.95;69.17;98653.72;4983482;28;20049;-71
2023/07/21 00:18:03;;;;;;;0.20;0.20;;;;;;;14.98;69.07;98654.97;4983222;28;20132;-73
2023/07/21 00:20:29;;;;;;;0.20;0.20;;;;;;;14.97;69.72;98650.63;4985801;28;20782;-72
2023/07/21 00:22:56;;;;;;;0.20;0.20;;;;;;;14.92;70.31;98634.31;4982661;28;20074;-72
2023/07/21 00:25:23;;;;;;;0.20;0.20;;;;;;;14.93;70.10;98642.25;4951093;28;20053;-72
2023/07/21 00:27:50;;;;;;;0.10;0.10;;;;;;;14.94;70.87;98643.03;4966880;28;20049;-72
2023/07/21 00:30:18;;;;;;;0.20;0.20;;;;;;;14.95;71.06;98639.13;4986938;28;20054;-74
2023/07/21 00:32:44;;;;;;;0.20;0.20;;;;;;;14.99;70.78;98646.41;4999537;28;20054;-73
2023/07/21 00:35:13;;;;;;;0.20;0.20;;;;;;;15.02;70.24;98651.22;5000259;28;20042;-73
2023/07/21 00:37:39;;;;;;;0.20;0.20;;;;;;;15.03;70.59;98641.84;4953356;28;20053;-73
2023/07/21 00:40:15;;;;;;;0.20;0.20;;;;;;;15.03;70.84;98638.28;4984042;28;20081;-72
2023/07/21 00:42:42;;;;;;;0.20;0.20;;;;;;;15.04;70.63;98642.66;4985221;28;20136;-73
2023/07/21 00:45:09;;;;;;;0.20;0.20;;;;;;;15.06;70.17;98650.56;4968313;28;20043;-73
2023/07/21 00:47:36;;;;;;;0.15;0.15;;;;;;;15.06;70.48;98651.38;4984354;28;20088;-73
2023/07/21 00:50:02;;;;;;;;;;;;;;;15.05;70.73;98648.94;4988245;28;20053;-73
2023/07/21 00:52:31;;;;;;;0.20;0.20;;;;;;;14.99;70.52;98649.16;4986038;28;19929;-72
2023/07/21 00:54:57;;;;;;;0.10;0.10;;;;;;;14.93;70.74;98649.69;4984760;28;20093;-74
2023/07/21 00:57:24;;;;;;;0.20;0.20;;;;;;;14.89;71.05;98660.53;4949830;28;20054;-74
2023/07/21 00:59:50;;;;;;;0.20;0.20;;;;;;;14.86;71.38;98653.78;4985098;28;20514;-74
2023/07/21 01:02:17;;;;;;;0.30;0.30;;;;;;;14.91;71.15;98654.72;4999158;28;20573;-74
2023/07/21 01:04:45;;;;;;;0.20;0.20;;;;;;;14.93;71.11;98655.19;4984466;28;20332;-74
2023/07/21 01:07:12;;;;;;;0.20;0.20;;;;;;;14.94;71.37;98662.28;4984936;28;20473;-75
2023/07/21 01:09:42;;;;;;;0.20;0.20;;;;;;;14.96;71.70;98669.09;4984932;28;20084;-74
2023/07/21 01:12:09;;;;;;;0.20;0.20;;;;;;;14.95;72.29;98658.41;4967050;28;20434;-73
2023/07/21 01:14:36;;;;;;;;;;;;;;;14.94;72.36;98674.13;4984315;28;20311;-74
2023/07/21 01:17:06;;;;;;;0.20;0.20;;;;;;;14.93;71.56;98671.69;4984932;28;20012;-73
2023/07/21 01:19:34;;;;;;;0.20;0.20;;;;;;;14.89;71.14;98666.84;4984941;28;20046;-73
2023/07/21 01:22:18;;;;;;;0.20;0.20;;;;;;;14.84;71.16;98669.81;4983509;28;20501;-72
2023/07/21 01:24:58;;;;;;;0.20;0.20;;;;;;;14.85;71.32;98674.16;4984315;28;20422;-73
2023/07/21 01:27:26;;;;;;;0.20;0.20;;;;;;;14.86;71.31;98673.03;4982508;28;20430;-73
2023/07/21 01:29:56;;;;;;;0.15;0.15;;;;;;;14.91;70.82;98672.03;4984957;28;20069;-73
2023/07/21 01:32:26;;;;;;;0.20;0.20;;;;;;;14.94;72.13;98671.38;4984819;28;20035;-73
2023/07/21 01:34:56;;;;;;;0.20;0.20;;;;;;;14.97;71.28;98676.22;5000656;28;20144;-72
2023/07/21 01:37:24;;;;;;;0.20;0.20;;;;;;;14.97;71.88;98675.38;4999652;28;20050;-73
2023/07/21 01:39:51;;;;;;;;;;;;;;;15.03;72.38;98676.81;4983831;28;20060;-73
2023/07/21 01:42:19;;;;;;;;;;;;;;;15.03;72.41;98679.59;4983371;28;19957;-73
2023/07/21 01:44:47;;;;;;;0.20;0.20;;;;;;;15.01;72.29;98679.09;4985259;28;20460;-73
2023/07/21 01:47:14;;;;;;;0.20;0.20;;;;;;;15.02;72.60;98680.72;4982330;28;20046;-73
2023/07/21 01:49:40;;;;;;;0.20;0.20;;;;;;;15.05;73.06;98674.53;4982546;28;20050;-72
2023/07/21 01:52:07;;;;;;;0.20;0.20;;;;;;;15.08;72.60;98676.63;4967308;28;20066;-72
2023/07/21 01:54:41;;;;;;;0.20;0.20;;;;;;;15.07;72.90;98685.25;4983355;28;20544;-72
2023/07/21 01:57:09;;;;;;;0.20;0.20;;;;;;;15.03;73.11;98679.59;4981762;28;20042;-73
2023/07/21 01:59:39;;;;;;;0.20;0.20;;;;;;;15.04;73.57;98681.19;4950040;28;20140;-72
2023/07/21 02:02:06;;;;;;;0.20;0.20;;;;;;;15.06;73.79;98689.91;5001030;28;20046;-73
2023/07/21 02:04:33;;;;;;;0.20;0.20;;;;;;;15.08;73.77;98687.63;4988208;28;20153;-73
2023/07/21 02:06:59;;;;;;;0.20;0.20;;;;;;;15.11;73.66;98689.72;4966111;28;20465;-72
2023/07/21 02:09:26;;;;;;;0.20;0.20;;;;;;;15.14;73.54;98685.50;4982486;28;20502;-73
2023/07/21 02:11:52;;;;;;;0.20;0.20;;;;;;;15.15;72.71;98682.44;4983911;28;20097;-73
2023/07/21 02:14:39;;;;;;;0.20;0.20;;;;;;;15.19;73.40;98684.50;4985116;28;20050;-73
2023/07/21 02:17:07;;;;;;;0.20;0.20;;;;;;;15.19;72.70;98681.75;4967138;28;20468;-72
2023/07/21 02:19:55;;;;;;;0.20;0.20;;;;;;;15.24;72.80;98690.63;4969328;28;20581;-73
2023/07/21 02:22:21;;;;;;;0.20;0.20;;;;;;;15.25;72.43;98683.16;4983530;28;20051;-72
2023/07/21 02:24:48;;;;;;;0.20;0.20;;;;;;;15.25;72.43;98686.75;5001060;28;20100;-73
2023/07/21 02:27:14;;;;;;;0.20;0.20;;;;;;;15.27;72.41;98689.16;4983670;28;20406;-74
2023/07/21 02:29:48;;;;;;;0.20;0.20;;;;;;;15.23;71.78;98674.44;5000700;28;20058;-73
2023/07/21 02:32:14;;;;;;;0.20;0.20;;;;;;;15.27;71.70;98680.88;4982876;28;20057;-74
2023/07/21 02:34:41;;;;;;;0.20;0.20;;;;;;;15.27;71.75;98683.63;4987411;28;20054;-73
2023/07/21 02:37:07;;;;;;;0.20;0.20;;;;;;;15.28;71.74;98679.75;4985727;28;20124;-74
2023/07/21 02:39:33;;;;;;;0.30;0.30;;;;;;;15.30;71.48;98686.53;5002883;28;20058;-73
2023/07/21 02:42:00;;;;;;;0.20;0.20;;;;;;;15.30;71.32;98680.25;4986248;28;20054;-73
2023/07/21 02:44:27;;;;;;;0.20;0.20;;;;;;;15.35;71.58;98680.03;4983792;28;20100;-74
2023/07/21 02:46:55;;;;;;;0.20;0.20;;;;;;;15.40;71.31;98685.34;4987807;28;20046;-74
2023/07/21 02:49:21;;;;;;;;;;;;;;;15.40;71.31;98682.59;4988445;28;20104;-74
2023/07/21 02:51:48;;;;;;;0.20;0.20;;;;;;;15.43;70.85;98690.16;4985614;28;19925;-74
2023/07/21 02:54:14;;;;;;;0.20;0.20;;;;;;;15.44;70.82;98672.50;4984502;28;20050;-73
2023/07/21 02:56:41;;;;;;;0.20;0.20;;;;;;;15.46;70.36;98680.44;4970146;28;20336;-74
2023/07/21 02:59:17;;;;;;;0.20;0.20;;;;;;;15.48;70.84;98680.13;4985556;28;20047;-74
2023/07/21 03:01:54;;;;;;;0.20;0.20;;;;;;;15.50;69.96;98677.84;4985080;28;20062;-74
2023/07/21 03:04:28;;;;;;;0.20;0.20;;;;;;;15.46;69.74;98672.19;5000651;28;20080;-73
2023/07/21 03:06:59;;;;;;;0.20;0.20;;;;;;;15.44;69.62;98669.75;4985959;28;20050;-73
2023/07/21 03:09:26;;;;;;;0.20;0.20;;;;;;;15.38;69.75;98659.28;4987208;28;20054;-74
2023/07/21 03:11:56;;;;;;;0.20;0.20;;;;;;;15.44;69.96;98675.25;4985451;28;20180;-73
2023/07/21 03:14:36;;;;;;;0.20;0.20;;;;;;;15.41;70.12;98673.19;4972112;28;20515;-74
2023/07/21 03:17:03;;;;;;;0.20;0.20;;;;;;;15.32;70.31;98669.69;4956267;28;20054;-74
2023/07/21 03:19:32;;;;;;;0.20;0.20;;;;;;;15.30;70.09;98675.53;5005537;28;20053;-73
2023/07/21 03:22:03;;;;;;;0.20;0.20;;;;;;;15.28;70.32;98665.97;4988404;28;20084;-72
2023/07/21 03:24:30;;;;;;;0.20;0.20;;;;;;;15.28;69.88;98674.25;4955405;28;20537;-72
2023/07/21 03:26:57;;;;;;;0.20;0.20;;;;;;;15.28;70.14;98679.75;4971938;28;20074;-72
2023/07/21 03:29:24;;;;;;;0.20;0.20;;;;;;;15.27;70.25;98667.13;4983164;28;20704;-72
2023/07/21 03:31:52;;;;;;;0.20;0.20;;;;;;;15.33;69.96;98668.56;4971007;28;20053;-72
2023/07/21 03:34:18;;;;;;;0.30;0.30;;;;;;;15.37;69.46;98665.91;4985779;28;20639;-72
2023/07/21 03:36:50;;;;;;;0.20;0.20;;;;;;;15.37;69.41;98663.97;4967738;28;20048;-74
2023/07/21 03:39:16;;;;;;;0.20;0.20;;;;;;;15.40;69.99;98679.03;4984105;28;20038;-74
2023/07/21 03:41:45;;;;;;;0.20;0.20;;;;;;;15.40;70.02;98671.56;4964536;28;20488;-74
2023/07/21 03:44:13;;;;;;;0.20;0.20;;;;;;;15.38;69.25;98676.59;4982737;28;20529;-74
2023/07/21 03:46:44;;;;;;;0.20;0.20;;;;;;;15.38;69.82;98679.38;5000031;28;20137;-74
2023/07/21 03:49:11;;;;;;;0.30;0.30;;;;;;;15.37;70.21;98685.19;4983536;28;20042;-74
2023/07/21 03:51:40;;;;;;;0.22;0.22;;;;;;;15.39;69.59;98683.72;4984371;28;20426;-74
2023/07/21 03:54:11;;;;;;;0.30;0.30;;;;;;;15.35;69.85;98677.28;4984463;28;20510;-74
2023/07/21 03:56:39;;;;;;;0.20;0.20;;;;;;;15.42;69.59;98688.56;4985885;28;20529;-74
2023/07/21 03:59:06;;;;;;;0.30;0.30;;;;;;;15.35;69.59;98682.78;4967027;28;20467;-75
2023/07/21 04:01:34;;;;;;;0.20;0.20;;;;;;;15.39;69.80;98686.47;4982585;28;20050;-75
2023/07/21 04:04:00;;;;;;;0.20;0.20;;;;;;;15.38;69.41;98684.09;4968015;28;20047;-74
2023/07/21 04:06:26;;;;;;;0.20;0.20;;;;;;;15.31;69.68;98688.16;4985052;28;20049;-74
2023/07/21 04:08:53;;;;;;;0.20;0.20;;;;;;;15.31;69.64;98696.41;4968244;28;20082;-74
2023/07/21 04:11:21;;;;;;;0.20;0.20;;;;;;;15.30;69.36;98708.56;4988487;28;20060;-74
2023/07/21 04:13:48;;;;;;;0.20;0.20;;;;;;;15.29;69.22;98708.88;5003065;28;20050;-73
2023/07/21 04:16:14;;;;;;;0.20;0.20;;;;;;;15.29;69.25;98711.66;4985455;28;20046;-74
2023/07/21 04:18:40;;;;;;;0.20;0.20;;;;;;;15.25;69.22;98711.53;4984526;28;20057;-73
2023/07/21 04:21:08;;;;;;;0.20;0.20;;;;;;;15.24;69.92;98717.34;4984715;28;20201;-73
2023/07/21 04:23:34;;;;;;;0.20;0.20;;;;;;;15.31;69.67;98720.41;4999776;28;20093;-73
2023/07/21 04:26:03;;;;;;;0.20;0.20;;;;;;;15.37;69.47;98712.72;4953635;28;20482;-72
2023/07/21 04:28:32;;;;;;;0.20;0.20;;;;;;;15.45;69.03;98720.16;4985690;28;20055;-73
2023/07/21 04:30:58;;;;;;;0.20;0.20;;;;;;;15.49;68.74;98721.09;4981879;28;20050;-73
2023/07/21 04:33:26;;;;;;;0.22;0.22;;;;;;;15.49;68.75;98728.56;4965527;28;20050;-73
2023/07/21 04:35:53;;;;;;;0.28;0.28;;;;;;;15.52;69.10;98723.16;4982993;28;20042;-73
2023/07/21 04:38:26;;;;;;;0.30;0.30;;;;;;;15.56;69.07;98718.63;4983673;28;20049;-73
2023/07/21 04:40:59;;;;;;;0.30;0.30;;;;;;;15.64;69.07;98718.88;4984715;28;20569;-75
2023/07/21 04:43:26;;;;;;;0.30;0.30;;;;;;;15.71;68.49;98713.66;4983265;28;20050;-75
2023/07/21 04:45:55;;;;;;;0.20;0.20;;;;;;;15.77;68.53;98719.78;5000094;28;20168;-74
2023/07/21 04:48:30;;;;;;;0.30;0.30;;;;;;;15.90;67.94;98723.44;4998491;28;20481;-75
2023/07/21 04:50:57;;;;;;;0.28;0.28;;;;;;;15.93;67.83;98720.81;4985999;28;20057;-74
2023/07/21 04:53:23;;;;;;;0.20;0.20;;;;;;;16.02;67.34;98715.22;4985128;28;20065;-74
2023/07/21 04:55:54;;;;;;;0.20;0.20;;;;;;;16.07;67.28;98722.47;4983283;28;20376;-75
2023/07/21 04:58:20;;;;;;;0.20;0.20;;;;;;;16.12;66.82;98719.50;4999468;28;20069;-75
2023/07/21 05:00:47;;;;;;;0.30;0.30;;;;;;;16.13;66.86;98715.59;4983117;28;20042;-74
2023/07/21 05:03:14;;;;;;;0.28;0.28;;;;;;;16.14;66.69;98706.19;4981015;28;20057;-73
2023/07/21 05:05:44;;;;;;;0.20;0.20;;;;;;;16.09;66.67;98709.97;4982645;28;20057;-73
2023/07/21 05:08:10;;;;;;;0.30;0.30;;;;;;;16.10;67.05;98725.34;4984351;28;20061;-73
2023/07/21 05:10:37;;;;;;;0.30;0.30;;;;;;;16.09;66.98;98717.44;4965968;28;20061;-72
2023/07/21 05:13:05;;;;;;;0.20;0.20;;;;;;;16.01;67.66;98710.84;4981577;28;20042;-72
2023/07/21 05:15:42;;;;;;;0.30;0.30;;;;;;;15.93;67.94;98712.53;4983090;28;20042;-73
2023/07/21 05:18:37;;;;;;;0.25;0.25;;;;;;;15.82;68.51;98714.06;4984427;28;20502;-72
2023/07/21 05:21:13;;;;;;;0.30;0.30;;;;;;;15.86;68.22;98720.50;4997828;28;20042;-72
2023/07/21 05:23:47;;;;;;;0.30;0.30;;;;;;;15.97;67.83;98712.66;4981754;28;20060;-72
2023/07/21 05:26:17;;;;;;;0.30;0.30;;;;;;;16.18;67.40;98717.34;4983171;28;20705;-72
2023/07/21 05:28:43;;;;;;;0.30;0.30;;;;;;;16.39;66.84;98712.59;4949660;28;20548;-72
2023/07/21 05:31:13;;;;;;;0.30;0.30;;;;;;;16.63;66.04;98718.50;4985448;28;20518;-73
2023/07/21 05:33:54;;;;;;;0.30;0.30;;;;;;;16.78;65.61;98715.09;4978779;28;20120;-72
2023/07/21 05:36:22;;;;;;;0.30;0.30;;;;;;;16.87;65.33;98712.22;4980727;28;20051;-72
2023/07/21 05:38:48;;;;;;;0.30;0.30;;;;;;;16.95;65.32;98718.78;4980536;28;20046;-72
2023/07/21 05:41:16;;;;;;;0.30;0.30;;;;;;;17.12;64.92;98713.06;5000809;28;20053;-72
2023/07/21 05:43:43;;;;;;;0.30;0.30;;;;;;;17.28;63.52;98704.91;4968612;28;20046;-71
2023/07/21 05:46:10;;;;;;;0.30;0.30;;;;;;;17.36;63.53;98705.09;4982735;28;20058;-72
2023/07/21 05:48:43;;;;;;;0.30;0.30;;;;;;;17.69;62.65;98713.22;4983197;28;20309;-72
2023/07/21 05:51:17;;;;;;;0.30;0.30;;;;;;;17.85;61.90;98709.72;4982004;28;20074;-72
2023/07/21 05:53:45;;;;;;;0.30;0.30;;;;;;;17.97;61.05;98711.63;4967744;28;20553;-72
2023/07/21 05:56:15;;;;;;;0.45;0.30;;;;;;;18.07;60.37;98702.88;4996457;28;20416;-72
2023/07/21 05:58:55;;;;;;;0.30;0.30;;;;;;;18.36;59.72;98700.91;5000252;28;20038;-72
2023/07/21 06:01:23;;;;;;;0.30;0.30;;;;;;;18.59;58.50;98705.84;4998057;28;20108;-72
2023/07/21 06:03:49;;;;;;;;;;;;;;;18.78;57.95;98710.69;4982748;28;20058;-73
2023/07/21 06:06:17;;;;;;;0.30;0.30;;;;;;;18.89;57.03;98708.19;4976189;28;20287;-73
2023/07/21 06:09:06;;;;;;;0.30;0.30;;;;;;;19.14;56.69;98708.03;4985874;28;20054;-73
2023/07/21 06:11:41;;;;;;;0.30;0.30;;;;;;;19.31;56.06;98704.06;4991080;28;20061;-73
2023/07/21 06:14:28;;;;;;;0.30;0.30;;;;;;;19.44;54.63;98698.41;4968569;28;20054;-73
2023/07/21 06:17:19;;;;;;;0.30;0.30;;;;;;;19.53;53.77;98699.81;4980980;28;20106;-74
2023/07/21 06:19:47;;;;;;;0.40;0.40;;;;;;;19.70;52.92;98701.38;4972397;28;20189;-73
2023/07/21 06:22:14;;;;;;;0.30;0.30;;;;;;;19.87;51.45;98696.56;4990689;28;20050;-74
2023/07/21 06:24:41;;;;;;;0.40;0.40;;;;;;;19.89;51.23;98691.44;4989227;28;20093;-73
2023/07/21 06:27:08;;;;;;;0.30;0.30;;;;;;;19.84;50.39;98692.53;4988844;28;20080;-73
2023/07/21 06:29:34;;;;;;;0.40;0.40;;;;;;;19.88;51.18;98686.25;4988497;28;20317;-73
2023/07/21 06:32:00;;;;;;;0.30;0.30;;;;;;;20.03;51.20;98688.19;4974230;28;20046;-73
2023/07/21 06:34:45;;;;;;;0.30;0.30;;;;;;;19.84;51.59;98680.66;4990986;28;20152;-73
2023/07/21 06:37:33;;;;;;;0.30;0.30;;;;;;;19.83;51.30;98687.38;4975886;28;20347;-73
2023/07/21 06:40:22;;;;;;;0.30;0.30;;;;;;;19.87;50.82;98679.91;4987722;28;20104;-73
2023/07/21 06:43:08;;;;;;;0.40;0.40;;;;;;;20.10;50.36;98685.56;4978878;28;20462;-74
2023/07/21 06:45:47;;;;;;;0.30;0.30;;;;;;;20.15;48.35;98681.69;4985743;28;20039;-74
2023/07/21 06:48:34;;;;;;;0.38;0.38;;;;;;;20.15;48.58;98680.88;4978235;28;20050;-73
2023/07/21 06:51:09;;;;;;;0.30;0.30;;;;;;;20.19;48.08;98688.09;4982108;28;20097;-73
2023/07/21 06:53:36;;;;;;;0.30;0.30;;;;;;;20.24;48.36;98679.47;4985326;28;20113;-73
2023/07/21 06:56:04;;;;;;;0.30;0.30;;;;;;;20.33;48.47;98681.22;4986458;28;20054;-73
2023/07/21 06:58:30;;;;;;;0.30;0.30;;;;;;;20.18;47.48;98680.94;4986366;28;20050;-73
2023/07/21 07:00:57;;;;;;;0.40;0.40;;;;;;;19.97;47.58;98684.88;4967830;28;20427;-73
2023/07/21 07:03:24;;;;;;;0.30;0.30;;;;;;;19.90;47.38;98692.22;4995881;28;20149;-73
2023/07/21 07:05:50;;;;;;;0.30;0.30;;;;;;;19.53;48.03;98699.81;4968958;28;20050;-74
2023/07/21 07:08:16;;;;;;;0.30;0.30;;;;;;;19.55;48.10;98696.69;4991352;28;20050;-74
2023/07/21 07:10:47;;;;;;;0.30;0.30;;;;;;;19.84;46.91;98694.53;5001482;28;20043;-73
2023/07/21 07:13:13;;;;;;;0.30;0.30;;;;;;;20.14;45.95;98688.41;4987377;28;20043;-74
2023/07/21 07:15:39;;;;;;;0.30;0.30;;;;;;;20.45;45.69;98683.84;4984459;28;20133;-75
2023/07/21 07:18:09;;;;;;;0.30;0.30;;;;;;;20.79;44.49;98691.53;4977313;28;20112;-74
2023/07/21 07:20:35;;;;;;;0.30;0.30;;;;;;;20.92;43.96;98689.41;4987693;28;20636;-73
2023/07/21 07:23:02;;;;;;;;;;;;;;;20.83;43.80;98686.88;4984913;28;20653;-74
2023/07/21 07:25:28;;;;;;;0.30;0.30;;;;;;;20.75;44.00;98694.25;4965982;28;19926;-73
2023/07/21 07:27:56;;;;;;;0.30;0.30;;;;;;;20.61;43.31;98686.47;4986135;28;20046;-72
2023/07/21 07:30:22;;;;;;;0.30;0.30;;;;;;;20.67;44.11;98695.31;4988014;28;20215;-73
2023/07/21 07:32:49;;;;;;;0.30;0.30;;;;;;;20.85;43.02;98694.84;4988618;28;20054;-72
2023/07/21 07:35:16;;;;;;;0.30;0.30;;;;;;;20.89;42.78;98699.28;4987578;28;20054;-72
2023/07/21 07:37:43;;;;;;;0.40;0.40;;;;;;;20.76;42.41;98701.44;4969721;28;20495;-72
2023/07/21 07:40:10;;;;;;;0.40;0.40;;;;;;;20.89;42.03;98699.28;4982846;28;20046;-72
2023/07/21 07:42:36;;;;;;;0.30;0.30;;;;;;;21.18;41.73;98699.75;4982174;28;20061;-72
2023/07/21 07:45:05;;;;;;;0.30;0.30;;;;;;;21.07;41.63;98690.44;4967569;28;20498;-72
2023/07/21 07:47:33;;;;;;;0.30;0.30;;;;;;;20.97;41.90;98695.44;4973980;28;20047;-72
2023/07/21 07:49:59;;;;;;;;;;;;;;;21.08;41.92;98700.38;4967937;28;20465;-72
2023/07/21 07:52:25;;;;;;;0.40;0.40;;;;;;;21.49;40.44;98692.25;4968662;28;20375;-72
2023/07/21 07:54:52;;;;;;;0.43;0.43;;;;;;;22.08;40.17;98699.38;4955125;28;20046;-73
2023/07/21 07:57:19;;;;;;;0.40;0.40;;;;;;;22.57;37.93;98700.34;4981564;28;20109;-73
2023/07/21 07:59:45;;;;;;;;;;;;;;;22.71;36.88;98696.88;4981795;28;20042;-73
2023/07/21 08:02:12;;;;;;;0.40;0.40;;;;;;;22.82;37.84;98696.97;4984097;28;19932;-73
2023/07/21 08:04:39;;;;;;;0.30;0.30;;;;;;;22.91;37.15;98697.47;4984859;28;20545;-73
2023/07/21 08:07:06;;;;;;;0.30;0.30;;;;;;;22.77;37.41;98700.91;4983623;28;20058;-73
2023/07/21 08:09:32;;;;;;;0.40;0.40;;;;;;;22.46;36.69;98702.19;4981479;28;20054;-73
2023/07/21 08:11:59;;;;;;;0.40;0.40;;;;;;;21.86;37.87;98707.47;4999709;28;20045;-73
2023/07/21 08:14:25;;;;;;;0.40;0.40;;;;;;;21.75;38.60;98704.53;4974397;28;20059;-72
2023/07/21 08:16:51;;;;;;;0.40;0.40;;;;;;;21.93;38.22;98707.56;4992490;28;20502;-73
2023/07/21 08:19:19;;;;;;;0.30;0.30;;;;;;;22.11;37.00;98709.75;4983006;28;20297;-72
2023/07/21 08:21:48;;;;;;;0.40;0.40;;;;;;;22.22;37.29;98712.66;4985472;28;20153;-73
2023/07/21 08:24:17;;;;;;;0.40;0.40;;;;;;;22.04;37.88;98701.34;4981420;28;20046;-73
2023/07/21 08:26:43;;;;;;;0.50;0.50;;;;;;;22.60;37.49;98709.91;4992902;28;20071;-73
2023/07/21 08:29:10;;;;;;;0.50;0.50;;;;;;;23.00;36.72;98711.06;4984663;28;20054;-73
2023/07/21 08:31:36;;;;;;;0.50;0.50;;;;;;;23.32;36.01;98721.69;4985191;28;20073;-73
2023/07/21 08:34:02;;;;;;;0.50;0.50;;;;;;;23.07;36.48;98724.25;4986253;28;20577;-73
2023/07/21 08:36:30;;;;;;;0.50;0.50;;;;;;;23.35;36.45;98726.47;4985069;28;20038;-73
2023/07/21 08:38:56;;;;;;;0.40;0.40;;;;;;;23.60;36.28;98713.88;4982208;28;20073;-73
2023/07/21 08:41:23;;;;;;;0.40;0.40;;;;;;;23.45;36.61;98718.59;4980329;28;20054;-73
2023/07/21 08:43:50;;;;;;;0.30;0.30;;;;;;;23.76;36.08;98702.41;5001060;28;20070;-73
2023/07/21 08:46:16;;;;;;;0.50;0.50;;;;;;;23.58;36.10;98705.91;5000735;28;20046;-73
2023/07/21 08:48:43;;;;;;;0.30;0.30;;;;;;;23.18;37.13;98714.00;4986902;28;20058;-73
2023/07/21 08:51:09;;;;;;;0.50;0.50;;;;;;;22.86;37.80;98711.72;4984500;28;20046;-73
2023/07/21 08:53:37;;;;;;;0.50;0.50;;;;;;;23.60;36.01;98705.50;4998086;28;20069;-72
2023/07/21 08:56:03;;;;;;;0.30;0.30;;;;;;;24.10;34.78;98701.38;4983806;28;20046;-73
2023/07/21 08:58:30;;;;;;;0.55;0.55;;;;;;;24.12;35.38;98705.38;4985244;28;20230;-73
2023/07/21 09:00:57;;;;;;;0.50;0.50;;;;;;;24.79;34.10;98710.75;4998268;28;20080;-73
2023/07/21 09:03:24;;;;;;;;;;;;;;;25.14;32.98;98705.56;4999848;28;20054;-73
2023/07/21 09:05:50;;;;;;;0.50;0.50;;;;;;;25.45;32.62;98703.13;4985306;28;19930;-73
2023/07/21 09:08:20;;;;;;;;;;;;;;;25.91;31.58;98721.81;4982831;28;20058;-72
2023/07/21 09:10:48;;;;;;;0.60;0.60;;;;;;;26.03;30.63;98706.56;4983883;28;19929;-73
2023/07/21 09:13:15;;;;;;;0.50;0.50;;;;;;;26.10;30.38;98719.72;4984736;28;20045;-72
2023/07/21 09:15:50;;;;;;;0.50;0.50;;;;;;;25.79;30.87;98713.84;4964375;28;20101;-72
2023/07/21 09:18:16;;;;;;;0.38;0.38;;;;;;;25.45;31.33;98717.88;4980088;28;20054;-72
2023/07/21 09:20:45;;;;;;;0.40;0.40;;;;;;;25.01;31.35;98708.75;4994464;28;20050;-72
2023/07/21 09:23:12;;;;;;;0.60;0.60;;;;;;;24.66;31.52;98713.06;4949586;28;20050;-72
2023/07/21 09:25:49;;;;;;;0.60;0.60;;;;;;;24.80;31.48;98711.53;4978502;28;20061;-72
2023/07/21 09:28:15;;;;;;;0.60;0.60;;;;;;;25.26;31.12;98716.31;4972263;28;20057;-73
2023/07/21 09:30:50;;;;;;;0.60;0.60;;;;;;;25.90;30.30;98713.81;4977258;28;20564;-73
2023/07/21 09:33:22;;;;;;;0.32;0.30;;;;;;;25.91;29.67;98721.81;4979059;28;20061;-72
2023/07/21 09:35:49;;;;;;;0.60;0.60;;;;;;;24.88;30.86;98708.34;4981634;28;20466;-72
2023/07/21 09:38:15;;;;;;;0.70;0.70;;;;;;;24.66;30.89;98713.06;4977016;28;20141;-72
2023/07/21 09:40:45;;;;;;;0.60;0.60;;;;;;;24.92;30.85;98711.94;4941429;28;20058;-73
2023/07/21 09:43:14;;;;;;;0.60;0.60;;;;;;;25.17;30.28;98711.13;4982245;28;20394;-73
2023/07/21 09:45:42;;;;;;;0.60;0.60;;;;;;;25.32;29.86;98711.13;4995472;28;20064;-73
2023/07/21 09:48:09;;;;;;;0.60;0.60;;;;;;;25.27;29.90;98709.50;4970410;28;20043;-73
2023/07/21 09:50:37;;;;;;;0.60;0.60;;;;;;;25.27;29.19;98709.50;4977983;28;20181;-73
2023/07/21 09:53:04;;;;;;;0.60;0.60;;;;;;;25.72;29.09;98716.66;4994274;28;20054;-73
2023/07/21 09:55:37;;;;;;;0.60;0.60;;;;;;;26.27;27.83;98697.66;4977130;28;20433;-73
2023/07/21 09:58:09;;;;;;;0.70;0.70;;;;;;;26.72;28.14;98705.38;4984211;28;20552;-73
2023/07/21 10:00:39;;;;;;;0.60;0.60;;;;;;;27.50;27.18;98715.56;4973285;28;20058;-73
2023/07/21 10:03:07;;;;;;;0.60;0.60;;;;;;;27.50;26.58;98716.38;4989878;28;20050;-72
2023/07/21 10:05:36;;;;;;;0.60;0.60;;;;;;;27.45;26.80;98719.59;4982342;28;20057;-72
2023/07/21 10:08:03;;;;;;;0.60;0.60;;;;;;;27.12;26.19;98717.13;4957142;28;20046;-73
2023/07/21 10:10:30;;;;;;;0.60;0.60;;;;;;;27.10;26.34;98722.34;4970421;28;20047;-72
2023/07/21 10:13:04;;;;;;;0.50;0.50;;;;;;;27.23;26.84;98713.41;4980877;28;20047;-72
2023/07/21 10:15:32;;;;;;;0.50;0.50;;;;;;;27.24;25.94;98703.78;4977812;28;20051;-71
2023/07/21 10:18:02;;;;;;;0.60;0.60;;;;;;;27.35;25.99;98710.09;4984902;28;20047;-72
2023/07/21 10:20:40;;;;;;;0.50;0.50;;;;;;;27.57;25.94;98719.09;4974045;28;20050;-71
2023/07/21 10:23:07;;;;;;;0.60;0.60;;;;;;;27.18;25.81;98711.88;4975398;28;20174;-72
2023/07/21 10:26:02;;;;;;;0.40;0.40;;;;;;;26.56;27.39;98715.09;4969434;28;20116;-71
2023/07/21 10:28:34;;;;;;;0.60;0.60;;;;;;;26.82;27.39;98692.50;4964652;28;20548;-71
2023/07/21 10:31:32;;;;;;;0.40;0.40;;;;;;;27.06;27.29;98709.56;4994492;28;20061;-72
2023/07/21 10:34:06;;;;;;;0.60;0.60;;;;;;;26.53;28.06;98703.91;4935570;28;20050;-72
2023/07/21 10:36:46;;;;;;;0.70;0.70;;;;;;;27.71;26.67;98695.72;4979667;28;20058;-72
2023/07/21 10:39:20;;;;;;;0.82;0.82;;;;;;;29.24;24.06;98685.91;4643373;28;9999646;-72
2023/07/21 10:41:47;;;;;;;0.50;0.50;;;;;;;29.60;24.33;98697.75;4979406;28;20047;-72
2023/07/21 10:44:14;;;;;;;0.40;0.40;;;;;;;27.86;25.59;98696.31;4977999;28;20050;-71
2023/07/21 10:46:42;;;;;;;0.35;0.35;;;;;;;26.68;27.96;98688.59;4990628;28;20617;-72
2023/07/21 10:49:11;;;;;;;0.40;0.40;;;;;;;25.89;29.87;98693.41;4982005;28;20510;-72
2023/07/21 10:51:39;;;;;;;0.50;0.50;;;;;;;25.26;30.93;98705.13;4976286;28;20038;-72
2023/07/21 10:54:06;;;;;;;1.00;1.00;;;;;;;24.96;31.35;98688.78;4975509;28;20061;-73
2023/07/21 10:56:34;;;;;;;1.10;1.10;;;;;;;26.93;28.48;98690.44;4977759;28;20050;-72
2023/07/21 10:59:00;;;;;;;0.68;0.68;;;;;;;28.97;25.85;98695.19;4972966;28;20471;-71
2023/07/21 11:01:27;;;;;;;0.40;0.40;;;;;;;29.14;25.58;98692.50;4971732;28;20081;-72
2023/07/21 11:03:53;;;;;;;0.40;0.40;;;;;;;27.62;27.32;98691.78;4971819;28;20047;-72
2023/07/21 11:06:22;;;;;;;0.40;0.40;;;;;;;26.38;29.36;98692.81;4973398;28;20043;-72
2023/07/21 11:08:49;;;;;;;0.40;0.40;;;;;;;25.66;30.33;98701.50;4974748;28;20062;-72
2023/07/21 11:11:16;;;;;;;0.38;0.38;;;;;;;25.17;31.01;98699.16;4978489;28;20372;-72
2023/07/21 11:13:42;;;;;;;0.40;0.40;;;;;;;24.68;31.22;98674.38;4977744;28;20042;-72
2023/07/21 11:16:09;;;;;;;0.30;0.30;;;;;;;24.33;32.21;98690.69;4970264;28;20052;-72
2023/07/21 11:18:40;;;;;;;0.40;0.40;;;;;;;24.07;33.05;98691.81;4975071;28;20050;-72
2023/07/21 11:21:06;;;;;;;0.40;0.40;;;;;;;23.97;33.35;98695.31;4982033;28;20047;-72
2023/07/21 11:23:34;;;;;;;0.40;0.40;;;;;;;24.32;32.78;98680.72;4980425;28;20521;-72
2023/07/21 11:26:06;;;;;;;0.38;0.38;;;;;;;24.29;33.03;98675.13;4979351;28;20083;-72
2023/07/21 11:28:33;;;;;;;0.38;0.38;;;;;;;24.06;33.60;98699.38;4971000;28;20137;-72
2023/07/21 11:31:00;;;;;;;0.38;0.38;;;;;;;23.78;34.10;98695.25;4967450;28;20055;-72
2023/07/21 11:33:42;;;;;;;0.30;0.30;;;;;;;23.36;35.02;98707.78;4977288;28;20124;-72
2023/07/21 11:36:13;;;;;;;0.30;0.30;;;;;;;23.16;35.71;98710.78;4963927;28;20062;-72
2023/07/21 11:38:41;;;;;;;0.30;0.30;;;;;;;23.08;36.48;98709.91;4973639;28;20130;-72
2023/07/21 11:41:08;;;;;;;0.30;0.30;;;;;;;22.98;36.82;98701.47;4962861;28;20057;-72
2023/07/21 11:43:46;;;;;;;;;;;;;;;22.69;37.24;98712.38;4977249;28;20042;-72
2023/07/21 11:46:21;;;;;;;0.30;0.30;;;;;;;22.10;39.16;98713.72;4981639;28;20313;-72